createdAt,value
2023-02-18T00:01:43.851Z,96.37
2023-02-18T00:06:43.947Z,96.52
2023-02-18T00:09:13.871Z,96.39
2023-02-18T00:11:43.761Z,96.42
2023-02-18T00:14:15.879Z,96.27
2023-02-18T00:16:45.317Z,96.43
2023-02-18T00:19:16.395Z,96.68
2023-02-18T00:21:44.316Z,96.73
2023-02-18T00:26:45.040Z,97.10
2023-02-18T00:29:13.981Z,97.10
2023-02-18T00:31:44.262Z,96.90
2023-02-18T00:34:13.923Z,96.83
2023-02-18T00:36:43.835Z,96.85
2023-02-18T00:39:14.234Z,97.07
2023-02-18T00:41:44.098Z,96.85
2023-02-18T00:44:13.759Z,96.91
2023-02-18T00:46:47.170Z,97.38
2023-02-18T00:49:13.762Z,97.50
2023-02-18T00:51:43.794Z,97.52
2023-02-18T00:54:14.107Z,97.52
2023-02-18T00:56:43.918Z,97.61
2023-02-18T00:59:13.777Z,97.60
2023-02-18T01:01:44.022Z,97.74
2023-02-18T01:04:13.900Z,97.92
2023-02-18T01:06:44.106Z,97.98
2023-02-18T01:09:13.826Z,97.99
2023-02-18T01:11:43.806Z,97.77
2023-02-18T01:14:13.847Z,98.05
2023-02-18T01:16:43.950Z,98.10
2023-02-18T01:19:13.857Z,98.21
2023-02-18T01:21:43.949Z,98.04
2023-02-18T01:24:13.830Z,98.07
2023-02-18T01:26:43.962Z,98.07
2023-02-18T01:29:14.073Z,98.00
2023-02-18T01:31:44.099Z,97.98
2023-02-18T01:36:44.034Z,98.18
2023-02-18T01:39:13.787Z,98.09
2023-02-18T01:41:43.983Z,98.08
2023-02-18T01:44:17.340Z,97.96
2023-02-18T01:46:44.372Z,97.97
2023-02-18T01:49:18.675Z,97.96
2023-02-18T01:51:47.873Z,97.88
2023-02-18T01:54:21.479Z,98.01
2023-02-18T01:56:48.924Z,98.26
2023-02-18T01:59:19.703Z,98.08
2023-02-18T02:01:45.053Z,98.22
2023-02-18T02:04:14.141Z,97.99
2023-02-18T02:06:44.006Z,97.89
2023-02-18T02:09:17.690Z,97.83
2023-02-18T02:14:27.959Z,97.71
2023-02-18T02:16:52.993Z,97.91
2023-02-18T02:19:33.815Z,98.07
2023-02-18T02:22:03.605Z,97.95
2023-02-18T02:24:33.567Z,97.94
2023-02-18T02:27:03.661Z,97.86
2023-02-18T02:29:32.062Z,97.93
2023-02-18T02:32:02.301Z,97.93
2023-02-18T02:36:50.207Z,98.02
2023-02-18T02:41:53.523Z,98.15
2023-02-18T02:44:20.470Z,98.09
2023-02-18T02:46:46.559Z,98.27
2023-02-18T02:49:28.083Z,98.58
2023-02-18T02:51:49.381Z,98.55
2023-02-18T02:54:17.400Z,98.57
2023-02-18T02:56:44.039Z,98.55
2023-02-18T02:59:19.341Z,98.84
2023-02-18T03:04:27.934Z,98.80
2023-02-18T03:07:02.451Z,98.68
2023-02-18T03:09:18.829Z,98.71
2023-02-18T03:11:55.051Z,99.33
2023-02-18T03:16:49.632Z,99.72
2023-02-18T03:21:50.509Z,100.00
2023-02-18T03:24:18.471Z,100.00
2023-02-18T03:26:47.923Z,100.00
2023-02-18T03:29:17.355Z,100.00
2023-02-18T03:31:48.150Z,99.90
2023-02-18T03:36:44.566Z,99.88
2023-02-18T03:39:16.629Z,99.88
2023-02-18T03:41:45.318Z,99.80
2023-02-18T03:44:14.102Z,99.71
2023-02-18T03:49:15.299Z,99.97
2023-02-18T03:51:43.962Z,99.88
2023-02-18T03:54:14.063Z,99.75
2023-02-18T03:56:44.015Z,99.80
2023-02-18T03:59:13.960Z,100.00
2023-02-18T04:01:44.136Z,99.82
2023-02-18T04:04:14.056Z,99.80
2023-02-18T04:06:44.010Z,99.88
2023-02-18T04:09:13.808Z,99.97
2023-02-18T04:11:43.907Z,100.00
2023-02-18T04:14:14.224Z,100.00
2023-02-18T04:16:44.335Z,100.00
2023-02-18T04:19:13.984Z,100.00
2023-02-18T04:21:44.042Z,100.00
2023-02-18T04:24:13.941Z,100.00
2023-02-18T04:26:43.973Z,100.00
2023-02-18T04:29:14.306Z,100.00
2023-02-18T04:31:44.186Z,100.00
2023-02-18T04:34:13.825Z,100.00
2023-02-18T04:36:43.966Z,100.00
2023-02-18T04:39:13.820Z,100.00
2023-02-18T04:41:44.026Z,100.00
2023-02-18T04:44:13.838Z,100.00
2023-02-18T04:46:43.970Z,100.00
2023-02-18T04:49:13.836Z,100.00
2023-02-18T04:51:44.108Z,100.00
2023-02-18T04:54:13.940Z,100.00
2023-02-18T04:59:14.205Z,100.00
2023-02-18T05:04:16.481Z,100.00
2023-02-18T05:06:43.989Z,100.00
2023-02-18T05:09:14.607Z,100.00
2023-02-18T05:11:44.195Z,100.00
2023-02-18T05:14:14.496Z,100.00
2023-02-18T05:16:44.017Z,100.00
2023-02-18T05:19:15.310Z,100.00
2023-02-18T05:21:44.158Z,100.00
2023-02-18T05:24:14.157Z,100.00
2023-02-18T05:26:44.206Z,100.00
2023-02-18T05:31:44.065Z,100.00
2023-02-18T05:34:14.098Z,100.00
2023-02-18T05:36:44.073Z,100.00
2023-02-18T05:39:13.852Z,100.00
2023-02-18T05:44:24.018Z,100.00
2023-02-18T05:46:44.151Z,100.00
2023-02-18T05:49:14.019Z,100.00
2023-02-18T05:54:14.632Z,100.00
2023-02-18T05:56:44.166Z,100.00
2023-02-18T05:59:13.945Z,100.00
2023-02-18T06:01:45.952Z,100.00
2023-02-18T06:04:14.824Z,100.00
2023-02-18T06:06:44.370Z,100.00
2023-02-18T06:09:14.533Z,100.00
2023-02-18T06:11:43.936Z,100.00
2023-02-18T06:14:13.977Z,100.00
2023-02-18T06:16:44.130Z,100.00
2023-02-18T06:19:14.058Z,100.00
2023-02-18T06:21:43.906Z,100.00
2023-02-18T06:24:14.330Z,100.00
2023-02-18T06:26:43.940Z,100.00
2023-02-18T06:29:13.941Z,100.00
2023-02-18T06:31:44.094Z,100.00
2023-02-18T06:34:14.349Z,100.00
2023-02-18T06:36:43.932Z,100.00
2023-02-18T06:39:14.232Z,100.00
2023-02-18T06:44:15.890Z,100.00
2023-02-18T06:46:44.093Z,100.00
2023-02-18T06:49:14.143Z,100.00
2023-02-18T06:51:43.901Z,100.00
2023-02-18T06:54:14.160Z,100.00
2023-02-18T07:01:44.254Z,100.00
2023-02-18T07:04:14.273Z,100.00
2023-02-18T07:06:43.877Z,100.00
2023-02-18T07:09:14.163Z,100.00
2023-02-18T07:11:44.226Z,100.00
2023-02-18T07:14:14.078Z,100.00
2023-02-18T07:16:43.923Z,100.00
2023-02-18T07:19:15.043Z,100.00
2023-02-18T07:21:43.899Z,100.00
2023-02-18T07:24:14.263Z,100.00
2023-02-18T07:26:43.921Z,100.00
2023-02-18T07:29:13.986Z,100.00
2023-02-18T07:31:43.975Z,100.00
2023-02-18T07:34:14.290Z,100.00
2023-02-18T07:36:44.356Z,100.00
2023-02-18T07:39:14.015Z,100.00
2023-02-18T07:41:44.154Z,100.00
2023-02-18T07:44:14.133Z,100.00
2023-02-18T07:46:45.241Z,100.00
2023-02-18T07:49:14.170Z,100.00
2023-02-18T07:51:46.457Z,100.00
2023-02-18T07:54:14.277Z,100.00
2023-02-18T07:56:44.276Z,100.00
2023-02-18T07:59:14.603Z,100.00
2023-02-18T08:01:45.104Z,100.00
2023-02-18T08:04:14.345Z,100.00
2023-02-18T08:06:46.553Z,100.00
2023-02-18T08:09:15.099Z,100.00
2023-02-18T08:14:14.240Z,100.00
2023-02-18T08:16:44.108Z,100.00
2023-02-18T08:19:14.054Z,100.00
2023-02-18T08:21:45.092Z,100.00
2023-02-18T08:24:14.038Z,100.00
2023-02-18T08:26:58.236Z,100.00
2023-02-18T08:29:14.206Z,100.00
2023-02-18T08:31:44.873Z,100.00
2023-02-18T08:34:14.298Z,100.00
2023-02-18T08:36:43.978Z,100.00
2023-02-18T08:44:14.209Z,100.00
2023-02-18T08:46:45.578Z,100.00
2023-02-18T08:49:14.043Z,100.00
2023-02-18T08:51:44.174Z,100.00
2023-02-18T08:54:14.024Z,100.00
2023-02-18T08:56:44.228Z,100.00
2023-02-18T08:59:13.949Z,100.00
2023-02-18T09:01:43.988Z,100.00
2023-02-18T09:04:14.443Z,100.00
2023-02-18T09:06:45.768Z,100.00
2023-02-18T09:09:13.932Z,100.00
2023-02-18T09:11:45.109Z,100.00
2023-02-18T09:14:14.306Z,100.00
2023-02-18T09:16:44.310Z,100.00
2023-02-18T09:19:14.201Z,100.00
2023-02-18T09:21:44.473Z,100.00
2023-02-18T09:24:14.647Z,100.00
2023-02-18T09:26:43.989Z,100.00
2023-02-18T09:29:14.111Z,100.00
2023-02-18T09:31:44.254Z,100.00
2023-02-18T09:34:13.922Z,100.00
2023-02-18T09:36:44.403Z,100.00
2023-02-18T09:39:15.066Z,100.00
2023-02-18T09:41:47.789Z,100.00
2023-02-18T09:44:19.930Z,100.00
2023-02-18T09:46:49.697Z,100.00
2023-02-18T09:49:16.746Z,100.00
2023-02-18T09:51:44.811Z,100.00
2023-02-18T09:54:17.211Z,100.00
2023-02-18T09:56:45.057Z,100.00
2023-02-18T09:59:17.780Z,100.00
2023-02-18T10:01:47.028Z,100.00
2023-02-18T10:04:18.502Z,100.00
2023-02-18T10:06:46.579Z,100.00
2023-02-18T10:09:20.419Z,100.00
2023-02-18T10:11:48.528Z,100.00
2023-02-18T10:14:15.425Z,100.00
2023-02-18T10:16:46.540Z,100.00
2023-02-18T10:19:21.189Z,100.00
2023-02-18T10:21:44.296Z,100.00
2023-02-18T10:24:25.096Z,100.00
2023-02-18T10:26:44.197Z,100.00
2023-02-18T10:29:19.409Z,100.00
2023-02-18T10:31:49.737Z,100.00
2023-02-18T10:34:22.824Z,100.00
2023-02-18T10:36:47.904Z,100.00
2023-02-18T10:39:27.121Z,100.00
2023-02-18T10:41:51.742Z,100.00
2023-02-18T10:44:23.031Z,100.00
2023-02-18T10:46:53.436Z,100.00
2023-02-18T10:49:30.892Z,100.00
2023-02-18T10:51:49.435Z,100.00
2023-02-18T10:54:15.014Z,100.00
2023-02-18T10:56:48.625Z,100.00
2023-02-18T10:59:19.090Z,100.00
2023-02-18T11:01:44.797Z,100.00
2023-02-18T11:04:18.085Z,100.00
2023-02-18T11:06:46.977Z,100.00
2023-02-18T11:09:27.144Z,100.00
2023-02-18T11:11:47.977Z,100.00
2023-02-18T11:14:27.330Z,100.00
2023-02-18T11:16:46.125Z,100.00
2023-02-18T11:19:33.269Z,100.00
2023-02-18T11:21:43.964Z,100.00
2023-02-18T11:24:15.508Z,100.00
2023-02-18T11:26:44.346Z,100.00
2023-02-18T11:29:19.594Z,100.00
2023-02-18T11:31:46.946Z,100.00
2023-02-18T11:34:17.752Z,100.00
2023-02-18T11:36:44.981Z,100.00
2023-02-18T11:39:21.136Z,100.00
2023-02-18T11:41:47.430Z,100.00
2023-02-18T11:44:20.723Z,100.00
2023-02-18T11:46:56.092Z,100.00
2023-02-18T11:49:23.157Z,100.00
2023-02-18T11:51:44.036Z,100.00
2023-02-18T11:54:23.792Z,100.00
2023-02-18T11:56:54.797Z,100.00
2023-02-18T11:59:14.706Z,100.00
2023-02-18T12:01:49.854Z,100.00
2023-02-18T12:04:16.696Z,100.00
2023-02-18T12:06:51.831Z,100.00
2023-02-18T12:09:22.200Z,100.00
2023-02-18T12:11:48.589Z,99.11
2023-02-18T12:14:18.417Z,100.00
2023-02-18T12:16:56.716Z,99.70
2023-02-18T12:19:35.246Z,96.89
2023-02-18T12:21:55.120Z,100.00
2023-02-18T12:24:32.954Z,98.45
2023-02-18T12:26:54.734Z,98.72
2023-02-18T12:29:29.911Z,97.12
2023-02-18T12:32:03.875Z,98.19
2023-02-18T12:34:30.942Z,96.25
2023-02-18T12:36:58.061Z,97.30
2023-02-18T12:39:28.136Z,97.29
2023-02-18T12:41:57.341Z,97.83
2023-02-18T12:44:29.205Z,98.54
2023-02-18T12:47:03.756Z,99.07
2023-02-18T12:49:30.070Z,97.52
2023-02-18T12:51:58.493Z,98.41
2023-02-18T12:54:32.389Z,99.08
2023-02-18T12:56:58.003Z,98.12
2023-02-18T12:59:32.997Z,99.17
2023-02-18T13:01:58.595Z,98.35
2023-02-18T13:04:23.375Z,99.37
2023-02-18T13:07:04.123Z,98.57
2023-02-18T13:09:25.541Z,98.66
2023-02-18T13:11:51.958Z,98.64
2023-02-18T13:14:19.956Z,97.31
2023-02-18T13:16:50.105Z,99.65
2023-02-18T13:19:19.756Z,98.59
2023-02-18T13:21:47.181Z,98.53
2023-02-18T13:24:21.818Z,99.02
2023-02-18T13:26:48.184Z,98.49
2023-02-18T13:29:21.540Z,97.90
2023-02-18T13:31:57.174Z,98.54
2023-02-18T13:34:23.691Z,98.54
2023-02-18T13:36:55.664Z,98.82
2023-02-18T13:39:19.512Z,98.70
2023-02-18T13:44:35.661Z,98.96
2023-02-18T13:46:48.810Z,98.44
2023-02-18T13:49:19.461Z,97.98
2023-02-18T13:51:47.557Z,96.61
2023-02-18T13:54:20.293Z,97.24
2023-02-18T13:56:46.691Z,97.10
2023-02-18T13:59:19.660Z,97.84
2023-02-18T14:01:46.380Z,96.88
2023-02-18T14:04:34.045Z,96.14
2023-02-18T14:07:03.877Z,96.92
2023-02-18T14:09:33.814Z,96.57
2023-02-18T14:11:48.406Z,96.53
2023-02-18T14:14:34.536Z,96.55
2023-02-18T14:17:03.958Z,96.69
2023-02-18T14:19:27.084Z,97.02
2023-02-18T14:21:44.095Z,96.27
2023-02-18T14:24:34.404Z,96.51
2023-02-18T14:26:46.507Z,96.73
2023-02-18T14:29:26.859Z,97.06
2023-02-18T14:31:51.892Z,96.94
2023-02-18T14:34:30.893Z,97.09
2023-02-18T14:39:32.285Z,96.84
2023-02-18T14:41:51.277Z,96.87
2023-02-18T14:44:30.263Z,96.67
2023-02-18T14:46:58.981Z,97.02
2023-02-18T14:51:47.091Z,96.74
2023-02-18T14:54:18.135Z,97.40
2023-02-18T14:56:53.573Z,97.32
2023-02-18T14:59:14.476Z,97.05
2023-02-18T15:01:46.447Z,97.05
2023-02-18T15:04:14.917Z,96.94
2023-02-18T15:06:44.115Z,97.41
2023-02-18T15:09:18.805Z,96.78
2023-02-18T15:11:48.850Z,97.00
2023-02-18T15:14:18.267Z,96.91
2023-02-18T15:16:45.325Z,96.78
2023-02-18T15:19:17.165Z,96.54
2023-02-18T15:21:46.752Z,97.24
2023-02-18T15:24:24.209Z,96.93
2023-02-18T15:26:49.631Z,96.94
2023-02-18T15:29:18.741Z,96.59
2023-02-18T15:31:46.449Z,96.47
2023-02-18T15:34:31.873Z,97.05
2023-02-18T15:36:48.729Z,96.92
2023-02-18T15:39:14.210Z,96.46
2023-02-18T15:41:45.438Z,96.82
2023-02-18T15:44:20.019Z,96.44
2023-02-18T15:46:44.589Z,96.36
2023-02-18T15:49:16.312Z,96.50
2023-02-18T15:51:44.204Z,96.54
2023-02-18T15:54:18.335Z,96.76
2023-02-18T15:56:48.704Z,96.83
2023-02-18T15:59:17.734Z,96.90
2023-02-18T16:01:49.060Z,97.56
2023-02-18T16:04:14.805Z,97.68
2023-02-18T16:06:46.133Z,98.10
2023-02-18T16:09:18.367Z,97.82
2023-02-18T16:11:47.293Z,97.42
2023-02-18T16:14:27.342Z,97.46
2023-02-18T16:16:59.203Z,97.47
2023-02-18T16:19:24.291Z,96.97
2023-02-18T16:21:45.982Z,97.41
2023-02-18T16:24:24.957Z,97.50
2023-02-18T16:26:45.721Z,97.41
2023-02-18T16:29:23.669Z,97.10
2023-02-18T16:31:44.413Z,97.18
2023-02-18T16:34:14.124Z,96.91
2023-02-18T16:36:54.458Z,97.00
2023-02-18T16:39:14.721Z,97.80
2023-02-18T16:41:44.059Z,97.93
2023-02-18T16:44:14.993Z,97.23
2023-02-18T16:46:44.206Z,98.15
2023-02-18T16:49:14.082Z,97.89
2023-02-18T16:51:44.168Z,97.46
2023-02-18T16:54:14.262Z,97.92
2023-02-18T16:56:44.495Z,97.79
2023-02-18T16:59:14.216Z,97.92
2023-02-18T17:01:45.510Z,98.05
2023-02-18T17:04:16.732Z,97.91
2023-02-18T17:06:44.706Z,97.78
2023-02-18T17:09:17.222Z,97.59
2023-02-18T17:11:46.110Z,97.79
2023-02-18T17:14:16.922Z,97.99
2023-02-18T17:16:45.341Z,97.36
2023-02-18T17:19:14.830Z,97.90
2023-02-18T17:21:44.260Z,97.50
2023-02-18T17:24:17.490Z,97.58
2023-02-18T17:26:44.550Z,97.29
2023-02-18T17:29:14.546Z,96.95
2023-02-18T17:31:46.142Z,97.27
2023-02-18T17:34:21.465Z,97.67
2023-02-18T17:36:44.392Z,97.55
2023-02-18T17:39:16.674Z,97.65
2023-02-18T17:41:44.279Z,97.63
2023-02-18T17:44:15.241Z,97.74
2023-02-18T17:46:45.568Z,97.71
2023-02-18T17:49:14.535Z,97.88
2023-02-18T17:51:44.292Z,97.85
2023-02-18T17:54:17.992Z,98.15
2023-02-18T17:59:14.827Z,98.65
2023-02-18T18:01:44.215Z,98.34
2023-02-18T18:04:15.987Z,98.11
2023-02-18T18:06:46.065Z,97.82
2023-02-18T18:09:14.167Z,97.77
2023-02-18T18:11:44.184Z,98.26
2023-02-18T18:14:14.476Z,98.09
2023-02-18T18:16:44.138Z,97.92
2023-02-18T18:19:14.184Z,97.75
2023-02-18T18:21:46.306Z,97.87
2023-02-18T18:24:14.322Z,97.99
2023-02-18T18:26:44.241Z,97.97
2023-02-18T18:29:14.248Z,98.14
2023-02-18T18:31:44.212Z,98.42
2023-02-18T18:36:44.221Z,98.31
2023-02-18T18:39:14.125Z,98.42
2023-02-18T18:41:44.174Z,98.86
2023-02-18T18:44:14.409Z,98.32
2023-02-18T18:46:44.112Z,98.48
2023-02-18T18:49:14.340Z,98.60
2023-02-18T18:51:44.498Z,99.19
2023-02-18T18:54:14.187Z,99.15
2023-02-18T18:56:44.199Z,99.13
2023-02-18T18:59:14.123Z,99.02
2023-02-18T19:01:44.452Z,99.23
2023-02-18T19:04:14.179Z,98.61
2023-02-18T19:06:44.419Z,98.88
2023-02-18T19:09:14.313Z,99.04
2023-02-18T19:11:49.727Z,98.58
2023-02-18T19:14:14.223Z,98.33
2023-02-18T19:16:44.499Z,98.39
2023-02-18T19:19:14.355Z,99.06
2023-02-18T19:21:45.827Z,98.70
2023-02-18T19:24:14.149Z,98.46
2023-02-18T19:26:44.720Z,98.37
2023-02-18T19:29:14.150Z,98.31
2023-02-18T19:31:44.241Z,98.31
2023-02-18T19:34:14.564Z,98.29
2023-02-18T19:36:45.644Z,98.22
2023-02-18T19:39:14.192Z,98.35
2023-02-18T19:41:44.185Z,98.21
2023-02-18T19:44:14.180Z,98.18
2023-02-18T19:49:14.822Z,98.25
2023-02-18T19:51:44.224Z,98.19
2023-02-18T19:54:14.603Z,98.14
2023-02-18T19:59:14.399Z,98.09
2023-02-18T20:04:14.500Z,98.07
2023-02-18T20:11:46.896Z,98.98
2023-02-18T20:14:19.280Z,99.23
2023-02-18T20:19:14.443Z,98.94
2023-02-18T20:21:44.154Z,98.95
2023-02-18T20:24:14.560Z,99.04
2023-02-18T20:26:44.758Z,98.80
2023-02-18T20:29:14.452Z,98.77
2023-02-18T20:31:44.796Z,98.73
2023-02-18T20:34:15.169Z,98.73
2023-02-18T20:36:45.118Z,98.90
2023-02-18T20:39:16.686Z,98.81
2023-02-18T20:44:15.208Z,98.91
2023-02-18T20:46:45.315Z,99.15
2023-02-18T20:51:45.162Z,99.33
2023-02-18T20:54:18.677Z,99.51
2023-02-18T20:56:46.264Z,99.94
2023-02-18T20:59:16.603Z,99.85
2023-02-18T21:01:45.341Z,99.75
2023-02-18T21:04:17.358Z,99.56
2023-02-18T21:06:45.041Z,99.79
2023-02-18T21:09:15.856Z,100.00
2023-02-18T21:11:44.684Z,99.97
2023-02-18T21:14:14.195Z,100.00
2023-02-18T21:16:44.323Z,99.99
2023-02-18T21:19:17.516Z,100.00
2023-02-18T21:21:45.987Z,100.00
2023-02-18T21:24:14.518Z,100.00
2023-02-18T21:26:44.203Z,100.00
2023-02-18T21:29:16.954Z,100.00
2023-02-18T21:31:44.734Z,100.00
2023-02-18T21:34:14.685Z,100.00
2023-02-18T21:36:44.258Z,100.00
2023-02-18T21:41:44.499Z,100.00
2023-02-18T21:44:14.566Z,100.00
2023-02-18T21:46:44.246Z,100.00
2023-02-18T21:49:14.717Z,100.00
2023-02-18T21:51:56.127Z,100.00
2023-02-18T21:54:14.498Z,100.00
2023-02-18T21:56:44.948Z,100.00
2023-02-18T21:59:14.254Z,100.00
2023-02-18T22:01:44.290Z,100.00
2023-02-18T22:04:15.337Z,100.00
2023-02-18T22:06:46.030Z,100.00
2023-02-18T22:09:14.394Z,100.00
2023-02-18T22:11:44.714Z,100.00
2023-02-18T22:14:15.762Z,100.00
2023-02-18T22:16:44.629Z,100.00
2023-02-18T22:21:45.529Z,100.00
2023-02-18T22:24:16.798Z,100.00
2023-02-18T22:26:45.885Z,100.00
2023-02-18T22:29:16.803Z,100.00
2023-02-18T22:31:44.651Z,100.00
2023-02-18T22:34:15.185Z,100.00
2023-02-18T22:36:44.740Z,100.00
2023-02-18T22:39:15.224Z,100.00
2023-02-18T22:44:16.594Z,100.00
2023-02-18T22:46:44.494Z,100.00
2023-02-18T22:49:14.278Z,100.00
2023-02-18T22:51:44.797Z,100.00
2023-02-18T22:54:15.886Z,100.00
2023-02-18T22:56:45.678Z,100.00
2023-02-18T22:59:16.499Z,100.00
2023-02-18T23:01:48.536Z,100.00
2023-02-18T23:04:17.046Z,100.00
2023-02-18T23:06:45.442Z,100.00
2023-02-18T23:09:16.650Z,100.00
2023-02-18T23:11:44.987Z,100.00
2023-02-18T23:14:17.328Z,100.00
2023-02-18T23:16:54.572Z,100.00
2023-02-18T23:19:14.234Z,100.00
2023-02-18T23:21:44.579Z,100.00
2023-02-18T23:24:14.791Z,100.00
2023-02-18T23:26:44.894Z,100.00
2023-02-18T23:29:15.657Z,100.00
2023-02-18T23:31:44.579Z,100.00
2023-02-18T23:34:16.141Z,100.00
2023-02-18T23:36:46.336Z,100.00
2023-02-18T23:39:18.240Z,100.00
2023-02-18T23:41:44.241Z,100.00
2023-02-18T23:44:16.679Z,100.00
2023-02-18T23:46:45.115Z,100.00
2023-02-18T23:49:15.414Z,100.00
2023-02-18T23:54:14.375Z,100.00
2023-02-18T23:56:44.891Z,100.00
2023-02-18T23:59:14.757Z,100.00
